Time;durP1;ratioP1;P1;durP2;ratioP2;P2;SDS_P1;SDS_P2;PMS_P1;PMS_P2;Temp;Humidity;BMP_temperature;BMP_pressure;BME280_temperature;BME280_humidity;BME280_pressure;Samples;Min_cycle;Max_cycle;Signal;HPM_P1;HPM_P2
2023/08/17 00:01:00;;;;;;;;;23.00;22.00;;;;;27.77;100.00;99028.59;6251631;27;97855;-66
2023/08/17 00:04:03;;;;;;;;;19.00;18.00;;;;;27.75;100.00;99022.59;6260582;27;96708;-66
2023/08/17 00:07:07;;;;;;;;;22.20;22.00;;;;;27.73;100.00;99024.88;6267109;27;98090;-66
2023/08/17 00:10:10;;;;;;;;;20.60;19.00;;;;;27.71;100.00;99015.28;6287724;27;96868;-66
2023/08/17 00:13:14;;;;;;;;;25.60;22.60;;;;;27.67;100.00;99022.63;6289021;27;97989;-66
2023/08/17 00:16:18;;;;;;;;;22.00;22.00;;;;;27.55;100.00;99017.78;6288241;27;96316;-66
2023/08/17 00:19:22;;;;;;;;;22.00;20.40;;;;;27.58;100.00;99031.78;6288759;27;96564;-66
2023/08/17 00:22:25;;;;;;;;;21.00;20.00;;;;;27.56;100.00;99033.25;6268385;27;98616;-66
2023/08/17 00:25:28;;;;;;;;;20.60;20.00;;;;;27.54;100.00;99030.00;6288546;27;96384;-66
2023/08/17 00:28:31;;;;;;;;;23.40;23.00;;;;;27.50;100.00;99038.16;6269714;27;96767;-66
2023/08/17 00:31:36;;;;;;;;;22.20;21.20;;;;;27.47;100.00;99026.88;6267545;27;96752;-66
2023/08/17 00:34:39;;;;;;;;;20.00;20.00;;;;;27.47;100.00;99029.63;6270245;27;96673;-66
2023/08/17 00:37:42;;;;;;;;;19.00;18.60;;;;;27.44;100.00;99022.81;6269333;27;96638;-66
2023/08/17 00:40:45;;;;;;;;;21.00;19.00;;;;;27.44;100.00;99019.22;6285345;27;96496;-66
2023/08/17 00:43:49;;;;;;;;;22.00;20.60;;;;;27.44;100.00;99010.94;6250520;27;96994;-66
2023/08/17 00:46:54;;;;;;;;;19.00;18.00;;;;;27.44;100.00;99022.00;6255520;27;96238;-66
2023/08/17 00:49:59;;;;;;;;;22.00;19.75;;;;;27.40;100.00;99030.16;6287641;27;96513;-66
2023/08/17 00:53:02;;;;;;;;;20.00;19.00;;;;;27.35;100.00;99024.78;6267747;27;97731;-66
2023/08/17 00:56:06;;;;;;;;;21.20;19.00;;;;;27.24;100.00;99025.44;6251397;27;96877;-66
2023/08/17 00:59:09;;;;;;;;;19.50;18.00;;;;;27.26;100.00;99021.22;6250099;27;96753;-66
2023/08/17 01:02:14;;;;;;;;;20.60;19.00;;;;;27.24;100.00;99015.19;6285479;27;96732;-66
2023/08/17 01:05:18;;;;;;;;;23.00;22.00;;;;;27.21;100.00;99015.06;6261150;27;96350;-66
2023/08/17 01:08:21;;;;;;;;;20.40;19.40;;;;;27.14;100.00;99027.44;6285379;27;96962;-66
2023/08/17 01:11:32;;;;;;;;;20.00;18.00;;;;;27.10;100.00;99020.91;6287518;27;96388;-66
2023/08/17 01:14:44;;;;;;;;;21.00;19.00;;;;;27.05;100.00;99010.03;6251624;27;96724;-66
2023/08/17 01:17:55;;;;;;;;;20.40;19.00;;;;;27.12;100.00;99017.84;6287511;27;96482;-66
2023/08/17 01:20:59;;;;;;;;;25.20;24.00;;;;;27.03;100.00;99026.13;6287584;27;96370;-66
2023/08/17 01:24:06;;;;;;;;;18.00;17.00;;;;;26.96;100.00;99030.53;6262929;27;96895;-66
2023/08/17 01:27:09;;;;;;;;;18.50;17.00;;;;;26.93;100.00;99036.69;6266918;27;96867;-66
2023/08/17 01:30:16;;;;;;;;;20.00;19.00;;;;;26.83;100.00;99040.56;6272101;27;96764;-66
2023/08/17 01:33:25;;;;;;;;;20.40;19.40;;;;;26.73;100.00;99035.38;6248895;27;96927;-66
2023/08/17 01:36:33;;;;;;;;;21.00;20.40;;;;;26.68;100.00;99033.56;6250157;27;98550;-66
2023/08/17 01:39:40;;;;;;;;;19.00;17.00;;;;;26.65;100.00;99034.22;6269274;27;96290;-66
2023/08/17 01:42:44;;;;;;;;;20.20;19.20;;;;;26.69;100.00;99048.22;6268221;27;96906;-66
2023/08/17 01:45:47;;;;;;;;;24.00;22.00;;;;;26.71;100.00;99046.75;6269053;27;96432;-66
2023/08/17 01:48:51;;;;;;;;;18.00;17.40;;;;;26.74;100.00;99043.34;6263497;27;97632;-66
2023/08/17 01:51:54;;;;;;;;;18.00;17.00;;;;;26.73;100.00;99038.16;6287180;27;96458;-66
2023/08/17 01:54:58;;;;;;;;;19.20;18.00;;;;;26.72;100.00;99042.06;6267665;27;96361;-66
2023/08/17 01:58:02;;;;;;;;;18.60;17.00;;;;;26.71;100.00;99038.47;6245182;27;96697;-65
2023/08/17 02:01:05;;;;;;;;;20.20;18.00;;;;;26.73;100.00;99038.16;6247247;27;96886;-65
2023/08/17 02:04:08;;;;;;;;;18.20;16.20;;;;;26.74;100.00;99028.69;6262783;27;99076;-66
2023/08/17 02:07:12;;;;;;;;;22.60;22.00;;;;;26.74;100.00;99034.22;6267309;27;96493;-66
2023/08/17 02:10:17;;;;;;;;;19.00;18.00;;;;;26.74;100.00;99032.28;6270326;27;96763;-66
2023/08/17 02:13:20;;;;;;;;;18.40;17.60;;;;;26.72;100.00;99031.81;6271271;27;96685;-66
2023/08/17 02:16:23;;;;;;;;;18.00;18.00;;;;;26.70;100.00;99041.53;6267697;27;97231;-66
2023/08/17 02:19:26;;;;;;;;;19.00;16.40;;;;;26.54;100.00;99032.91;6291496;27;96410;-66
2023/08/17 02:22:30;;;;;;;;;17.00;16.00;;;;;26.46;100.00;99042.00;6273160;27;96927;-66
2023/08/17 02:25:35;;;;;;;;;18.00;17.00;;;;;26.31;100.00;99042.44;6292512;27;96374;-66
2023/08/17 02:28:39;;;;;;;;;17.00;16.60;;;;;26.28;100.00;99045.88;6274236;27;97024;-66
2023/08/17 02:31:42;;;;;;;;;17.60;16.60;;;;;26.20;100.00;99035.56;6254215;27;98601;-66
2023/08/17 02:34:45;;;;;;;;;17.60;17.40;;;;;26.29;100.00;99045.53;6258980;27;97254;-66
2023/08/17 02:37:48;;;;;;;;;15.50;15.00;;;;;26.30;100.00;99046.34;6252040;27;99378;-66
2023/08/17 02:40:53;;;;;;;;;16.00;15.33;;;;;26.34;100.00;99049.31;6262858;27;96492;-66
2023/08/17 02:43:56;;;;;;;;;17.00;17.00;;;;;26.36;100.00;99047.00;6272709;27;97186;-66
2023/08/17 02:47:00;;;;;;;;;19.00;18.00;;;;;26.38;100.00;99050.28;6264427;27;97051;-66
2023/08/17 02:50:03;;;;;;;;;22.00;20.00;;;;;26.44;100.00;99054.53;6270865;27;97290;-65
2023/08/17 02:53:07;;;;;;;;;19.00;17.00;;;;;26.49;100.00;99054.34;6270834;27;96516;-66
2023/08/17 02:56:12;;;;;;;;;19.00;18.00;;;;;26.49;100.00;99051.59;6253619;27;96726;-66
2023/08/17 02:59:15;;;;;;;;;21.00;20.40;;;;;26.47;100.00;99060.22;6270886;27;96695;-66
2023/08/17 03:02:18;;;;;;;;;21.40;20.00;;;;;26.48;100.00;99058.28;6287861;27;96522;-66
2023/08/17 03:05:23;;;;;;;;;20.80;19.80;;;;;26.48;100.00;99055.50;6268141;27;97482;-66
2023/08/17 03:08:28;;;;;;;;;21.00;19.00;;;;;26.51;100.00;99057.63;6272708;27;96778;-66
2023/08/17 03:11:33;;;;;;;;;20.00;18.00;;;;;26.55;100.00;99050.31;6290526;27;96318;-66
2023/08/17 03:14:39;;;;;;;;;19.40;19.00;;;;;26.55;100.00;99044.78;6289507;27;96657;-66
2023/08/17 03:17:44;;;;;;;;;18.40;17.00;;;;;26.60;100.00;99039.91;6267558;27;96435;-66
2023/08/17 03:20:48;;;;;;;;;19.00;19.00;;;;;26.63;100.00;99052.28;6252973;27;96965;-66
2023/08/17 03:23:51;;;;;;;;;19.00;18.00;;;;;26.59;100.00;99073.41;6257988;27;96777;-66
2023/08/17 03:26:56;;;;;;;;;19.40;18.40;;;;;26.42;100.00;99076.16;6255381;27;96687;-65
2023/08/17 03:30:01;;;;;;;;;21.00;19.00;;;;;26.32;100.00;99076.44;6257353;27;96292;-65
2023/08/17 03:33:05;;;;;;;;;19.50;18.50;;;;;26.26;100.00;99084.88;6244999;27;98419;-66
2023/08/17 03:36:09;;;;;;;;;21.00;18.00;;;;;26.19;100.00;99094.75;6271460;27;96498;-66
2023/08/17 03:39:13;;;;;;;;;19.60;19.00;;;;;26.04;100.00;99095.97;6270210;27;96365;-66
2023/08/17 03:42:17;;;;;;;;;21.00;19.00;;;;;25.99;100.00;99093.34;6294376;27;96372;-61
2023/08/17 03:45:20;;;;;;;;;19.00;19.00;;;;;26.06;100.00;99096.47;6307491;27;96938;-61
2023/08/17 03:48:26;;;;;;;;;22.20;20.20;;;;;26.10;100.00;99091.09;6297124;27;97059;-61
2023/08/17 03:51:29;;;;;;;;;22.00;21.00;;;;;26.09;100.00;99095.84;6315770;27;96286;-61
2023/08/17 03:54:32;;;;;;;;;20.40;19.40;;;;;26.07;100.00;99108.34;6298140;27;96395;-61
2023/08/17 03:57:37;;;;;;;;;20.00;18.00;;;;;26.11;100.00;99107.38;6290630;27;96531;-62
2023/08/17 04:00:42;;;;;;;;;21.20;20.20;;;;;26.16;100.00;99100.88;6305765;27;96829;-62
2023/08/17 04:03:46;;;;;;;;;20.60;19.40;;;;;26.19;100.00;99090.00;6267723;27;97505;-62
2023/08/17 04:06:49;;;;;;;;;17.00;16.50;;;;;26.25;100.00;99087.94;6272789;27;96668;-68
2023/08/17 04:09:52;;;;;;;;;18.00;17.00;;;;;26.21;100.00;99093.31;6253915;27;96182;-68
2023/08/17 04:12:56;;;;;;;;;20.00;19.00;;;;;26.23;100.00;99087.47;6234908;27;98986;-68
2023/08/17 04:15:59;;;;;;;;;25.00;23.00;;;;;26.30;100.00;99098.88;6257862;27;97584;-68
2023/08/17 04:19:03;;;;;;;;;20.50;20.00;;;;;26.28;100.00;99095.63;6232664;27;96777;-68
2023/08/17 04:22:06;;;;;;;;;19.00;18.25;;;;;26.19;100.00;99105.81;6240463;27;96819;-68
2023/08/17 04:25:09;;;;;;;;;17.80;17.00;;;;;26.20;100.00;99111.00;6263402;27;96336;-68
2023/08/17 04:28:14;;;;;;;;;17.60;17.00;;;;;26.24;100.00;99112.00;6253930;27;96290;-68
2023/08/17 04:31:20;;;;;;;;;18.75;16.75;;;;;26.29;100.00;99103.56;6257959;27;96491;-68
2023/08/17 04:34:32;;;;;;;;;17.75;17.00;;;;;26.36;100.00;99102.31;6244348;27;96622;-68
2023/08/17 04:37:35;;;;;;;;;18.80;16.80;;;;;26.44;100.00;99101.53;6239993;27;96725;-68
2023/08/17 04:40:39;;;;;;;;;19.00;17.00;;;;;26.46;100.00;99102.81;6224267;27;96717;-68
2023/08/17 04:43:46;;;;;;;;;19.00;17.60;;;;;26.44;100.00;99112.59;6242319;27;97118;-67
2023/08/17 04:46:49;;;;;;;;;20.00;19.00;;;;;26.44;100.00;99101.53;6244002;27;96513;-68
2023/08/17 04:49:52;;;;;;;;;18.80;18.00;;;;;26.44;100.00;99087.72;6223061;27;98529;-68
2023/08/17 04:52:56;;;;;;;;;17.00;17.00;;;;;26.57;100.00;99095.88;6260996;27;96459;-68
2023/08/17 04:55:59;;;;;;;;;21.00;20.00;;;;;26.61;100.00;99107.91;6250842;27;100196;-68
2023/08/17 04:59:05;;;;;;;;;18.80;16.80;;;;;26.58;100.00;99099.47;6242193;27;96452;-68
2023/08/17 05:02:08;;;;;;;;;20.00;19.00;;;;;26.74;100.00;99117.19;6257313;27;96452;-69
2023/08/17 05:05:13;;;;;;;;;19.00;18.00;;;;;26.82;100.00;99119.19;6259730;27;96883;-68
2023/08/17 05:08:17;;;;;;;;;19.00;17.25;;;;;26.89;100.00;99122.31;6265504;27;96971;-68
2023/08/17 05:11:20;;;;;;;;;21.20;19.00;;;;;26.95;100.00;99120.22;6274637;27;97545;-68
2023/08/17 05:14:25;;;;;;;;;17.50;16.75;;;;;27.03;100.00;99117.44;6262924;27;97402;-68
2023/08/17 05:17:30;;;;;;;;;17.60;17.60;;;;;27.09;100.00;99113.38;6260006;27;96991;-68
2023/08/17 05:20:33;;;;;;;;;18.00;18.00;;;;;27.18;100.00;99116.16;6268182;27;96956;-68
2023/08/17 05:23:36;;;;;;;;;22.00;20.00;;;;;27.26;100.00;99120.88;6264578;27;97749;-68
2023/08/17 05:26:40;;;;;;;;;21.00;20.00;;;;;27.33;100.00;99131.44;6261114;27;96676;-66
2023/08/17 05:29:44;;;;;;;;;20.00;20.00;;;;;27.33;100.00;99131.44;6267464;27;96462;-68
2023/08/17 05:32:50;;;;;;;;;17.00;15.50;;;;;27.31;100.00;99131.00;6240223;27;98517;-68
2023/08/17 05:35:57;;;;;;;;;22.00;19.00;;;;;27.27;100.00;99125.25;6234764;27;96726;-68
2023/08/17 05:39:01;;;;;;;;;22.00;20.00;;;;;27.33;100.00;99121.19;6242351;27;96968;-68
2023/08/17 05:42:05;;;;;;;;;19.40;18.00;;;;;27.38;100.00;99134.88;6268054;27;96727;-68
2023/08/17 05:45:10;;;;;;;;;17.80;16.00;;;;;27.38;100.00;99132.09;6270457;27;96371;-67
2023/08/17 05:48:13;;;;;;;;;18.00;16.75;;;;;27.43;100.00;99137.47;6290951;27;96303;-68
2023/08/17 05:51:16;;;;;;;;;18.00;16.80;;;;;27.52;100.00;99132.78;6291215;27;96339;-68
2023/08/17 05:54:20;;;;;;;;;19.00;18.00;;;;;27.67;100.00;99141.72;6271787;27;96725;-68
2023/08/17 05:57:23;;;;;;;;;17.00;16.00;;;;;27.83;100.00;99134.53;6290671;27;96256;-67
2023/08/17 06:00:28;;;;;;;;;17.00;16.20;;;;;28.00;100.00;99131.72;6246685;27;99031;-68
2023/08/17 06:03:31;;;;;;;;;16.00;16.00;;;;;28.18;100.00;99138.06;6270998;27;96539;-68
2023/08/17 06:06:35;;;;;;;;;19.00;18.00;;;;;28.33;100.00;99140.28;6271882;27;99026;-68
2023/08/17 06:09:38;;;;;;;;;18.00;16.60;;;;;28.43;100.00;99140.72;6254289;27;96986;-68
2023/08/17 06:12:41;;;;;;;;;20.00;18.40;;;;;28.63;100.00;99138.34;6290037;27;96522;-68
2023/08/17 06:15:45;;;;;;;;;19.40;18.00;;;;;28.91;100.00;99142.28;6271323;27;97296;-67
2023/08/17 06:18:49;;;;;;;;;18.20;16.80;;;;;29.22;100.00;99144.69;6287939;27;96489;-68
2023/08/17 06:21:52;;;;;;;;;22.00;19.40;;;;;29.53;100.00;99149.84;6237343;27;96761;-68
2023/08/17 06:24:56;;;;;;;;;19.00;18.00;;;;;29.72;100.00;99150.16;6262645;27;97422;-68
2023/08/17 06:27:59;;;;;;;;;18.20;16.20;;;;;29.93;100.00;99148.19;6267511;27;98239;-68
2023/08/17 06:31:04;;;;;;;;;17.00;17.00;;;;;30.15;100.00;99149.75;6289931;27;96720;-68
2023/08/17 06:34:07;;;;;;;;;19.80;16.40;;;;;30.24;100.00;99146.84;6287490;27;96326;-68
2023/08/17 06:37:10;;;;;;;;;19.75;17.75;;;;;30.30;100.00;99137.94;6246171;27;96863;-68
2023/08/17 06:40:14;;;;;;;;;17.40;16.00;;;;;30.42;100.00;99142.69;6285052;27;96980;-68
2023/08/17 06:43:18;;;;;;;;;15.00;14.00;;;;;30.40;100.00;99143.03;6259615;27;96395;-68
2023/08/17 06:46:22;;;;;;;;;15.00;14.00;;;;;30.44;100.00;99141.22;6285674;27;96730;-68
2023/08/17 06:49:27;;;;;;;;;17.00;16.60;;;;;30.50;100.00;99139.00;6270611;27;96459;-68
2023/08/17 06:52:31;;;;;;;;;16.00;15.50;;;;;30.57;100.00;99135.66;6268977;27;96848;-68
2023/08/17 06:55:34;;;;;;;;;18.00;16.00;;;;;30.63;100.00;99137.88;6289189;27;96321;-68
2023/08/17 06:58:37;;;;;;;;;18.40;17.00;;;;;30.72;100.00;99133.00;6271391;27;96504;-68
2023/08/17 07:01:41;;;;;;;;;16.25;16.00;;;;;30.76;100.00;99135.88;6255094;27;96736;-68
2023/08/17 07:04:44;;;;;;;;;14.40;14.40;;;;;30.81;100.00;99135.66;6245458;27;98436;-68
2023/08/17 07:07:48;;;;;;;;;18.50;16.00;;;;;30.92;100.00;99129.28;6262532;27;96479;-68
2023/08/17 07:10:51;;;;;;;;;18.00;16.00;;;;;31.16;100.00;99139.56;6247195;27;96407;-68
2023/08/17 07:13:54;;;;;;;;;15.25;14.25;;;;;31.37;100.00;99134.63;6244762;27;98524;-68
2023/08/17 07:16:59;;;;;;;;;16.00;16.00;;;;;31.47;100.00;99127.75;6264137;27;96460;-68
2023/08/17 07:20:03;;;;;;;;;15.00;14.00;;;;;31.77;100.00;99129.03;6245629;27;96392;-68
2023/08/17 07:23:09;;;;;;;;;15.00;14.00;;;;;32.00;100.00;99128.47;6245908;27;96615;-68
2023/08/17 07:26:12;;;;;;;;;16.00;14.60;;;;;32.22;100.00;99133.44;6263199;27;98208;-68
2023/08/17 07:29:15;;;;;;;;;16.00;14.67;;;;;32.44;100.00;99132.03;6263564;27;96750;-68
2023/08/17 07:32:20;;;;;;;;;13.20;12.20;;;;;32.51;100.00;99134.97;6263622;27;96379;-68
2023/08/17 07:35:24;;;;;;;;;10.80;9.20;;;;;32.74;100.00;99127.63;6228742;27;98632;-67
2023/08/17 07:38:27;;;;;;;;;14.25;13.00;;;;;33.04;100.00;99122.28;6245812;27;96448;-68
2023/08/17 07:41:31;;;;;;;;;15.40;15.40;;;;;33.42;100.00;99124.38;6232091;28;97256;-68
2023/08/17 07:44:34;;;;;;;;;16.00;15.00;;;;;33.88;100.00;99128.91;6239376;28;96407;-68
2023/08/17 07:47:39;;;;;;;;;12.00;11.20;;;;;34.22;100.00;99124.38;6237108;27;96889;-67
2023/08/17 07:50:42;;;;;;;;;14.20;12.40;;;;;34.59;100.00;99124.59;6265368;27;96704;-67
2023/08/17 07:53:45;;;;;;;;;13.20;12.80;;;;;34.60;100.00;99125.41;6245961;27;98575;-68
2023/08/17 07:56:49;;;;;;;;;12.80;12.20;;;;;34.56;100.00;99124.53;6265401;27;96983;-67
2023/08/17 07:59:53;;;;;;;;;13.80;12.40;;;;;34.47;100.00;99123.97;6264803;27;96310;-67
2023/08/17 08:02:58;;;;;;;;;14.75;12.00;;;;;34.51;100.00;99130.44;6265183;27;96362;-67
2023/08/17 08:06:01;;;;;;;;;14.00;13.00;;;;;34.57;100.00;99131.75;6263638;27;96858;-67
2023/08/17 08:09:04;;;;;;;;;15.00;13.00;;;;;34.62;100.00;99128.63;6263845;27;96337;-67
2023/08/17 08:12:08;;;;;;;;;14.20;12.80;;;;;34.62;100.00;99123.03;6271462;27;96572;-67
2023/08/17 08:15:12;;;;;;;;;15.00;13.60;;;;;34.56;100.00;99124.53;6289816;27;96389;-68
2023/08/17 08:18:16;;;;;;;;;12.00;12.00;;;;;34.41;100.00;99128.28;6272592;27;96635;-67
2023/08/17 08:21:19;;;;;;;;;14.00;14.00;;;;;34.67;100.00;99117.94;6276762;27;96554;-67
2023/08/17 08:24:23;;;;;;;;;17.60;16.00;;;;;35.03;100.00;99116.50;6253673;27;96578;-68
2023/08/17 08:27:40;;;;;;;;;15.00;12.00;;;;;35.09;100.00;99112.16;6287109;27;96421;-68
2023/08/17 08:30:43;;;;;;;;;15.00;14.00;;;;;35.48;100.00;99109.09;6253019;27;96542;-68
2023/08/17 08:33:48;;;;;;;;;12.25;12.00;;;;;35.80;100.00;99103.88;6236287;27;98414;-67
2023/08/17 08:36:51;;;;;;;;;15.00;14.00;;;;;35.73;100.00;99100.97;6252770;27;97419;-68
2023/08/17 08:39:56;;;;;;;;;11.00;10.60;;;;;36.04;100.00;99108.94;6236376;27;96873;-67
2023/08/17 08:42:59;;;;;;;;;13.00;12.00;;;;;36.26;100.00;99084.72;6259977;27;97241;-68
2023/08/17 08:46:03;;;;;;;;;11.60;10.00;;;;;36.61;100.00;99098.25;6261318;27;96537;-68
2023/08/17 08:49:11;;;;;;;;;11.00;10.00;;;;;36.82;100.00;99099.22;6269376;27;98410;-67
2023/08/17 08:52:23;;;;;;;;;13.25;12.00;;;;;37.05;100.00;99095.31;6248366;27;97048;-68
2023/08/17 08:55:30;;;;;;;;;12.40;11.40;;;;;37.00;100.00;99090.06;6266363;27;97294;-68
2023/08/17 08:58:36;;;;;;;;;12.40;12.00;;;;;36.94;100.00;99088.84;6284257;27;96413;-68
2023/08/17 09:01:39;;;;;;;;;13.40;11.40;;;;;37.17;100.00;99097.84;6263787;27;96673;-68
2023/08/17 09:04:45;;;;;;;;;11.00;11.00;;;;;37.52;100.00;99092.38;6283892;27;96352;-68
2023/08/17 09:07:50;;;;;;;;;13.00;12.00;;;;;37.73;100.00;99098.06;6286795;27;96333;-68
2023/08/17 09:10:53;;;;;;;;;14.00;14.00;;;;;38.20;100.00;99093.38;6286389;27;96326;-68
2023/08/17 09:14:00;;;;;;;;;13.00;11.75;;;;;38.32;100.00;99094.97;6268165;27;96589;-68
2023/08/17 09:17:03;;;;;;;;;12.40;11.40;;;;;38.43;100.00;99098.59;6284226;27;96482;-68
2023/08/17 09:20:09;;;;;;;;;12.00;11.80;;;;;38.64;100.00;99086.53;6276828;27;96715;-68
2023/08/17 09:23:14;;;;;;;;;12.40;12.00;;;;;38.71;100.00;99095.75;6292704;27;96513;-68
2023/08/17 09:26:20;;;;;;;;;14.80;13.00;;;;;38.98;100.00;99096.97;6269385;27;96761;-68
2023/08/17 09:29:23;;;;;;;;;14.00;13.60;;;;;39.10;100.00;99098.53;6252991;27;96877;-68
2023/08/17 09:32:31;;;;;;;;;13.00;12.00;;;;;39.13;100.00;99103.38;6272193;27;96374;-68
2023/08/17 09:35:35;;;;;;;;;13.00;13.00;;;;;38.98;100.00;99104.63;6277257;27;96739;-68
2023/08/17 09:38:39;;;;;;;;;13.00;12.00;;;;;39.20;100.00;99099.69;6262705;27;96994;-68
2023/08/17 09:41:42;;;;;;;;;15.50;14.00;;;;;39.49;100.00;99106.09;6281413;27;97068;-68
2023/08/17 09:44:46;;;;;;;;;10.00;9.40;;;;;39.07;96.38;99095.72;6290956;27;96497;-68
2023/08/17 09:47:50;;;;;;;;;10.00;9.00;;;;;39.03;99.85;99094.94;6291074;27;96242;-68
2023/08/17 09:50:57;;;;;;;;;10.00;9.00;;;;;38.48;99.73;99090.56;6256326;27;96627;-68
2023/08/17 09:54:00;;;;;;;;;10.00;10.00;;;;;38.46;100.00;99092.97;6272893;27;97548;-68
2023/08/17 09:57:07;;;;;;;;;10.50;10.50;;;;;38.50;100.00;99088.16;6257347;27;96859;-68
2023/08/17 10:00:11;;;;;;;;;11.20;11.20;;;;;38.21;100.00;99089.34;6272107;27;97208;-68
2023/08/17 10:03:15;;;;;;;;;11.00;10.00;;;;;38.42;100.00;99085.69;6278829;27;96402;-69
2023/08/17 10:06:25;;;;;;;;;14.00;13.80;;;;;38.56;100.00;99080.91;6279729;27;98159;-68
2023/08/17 10:09:34;;;;;;;;;15.00;13.00;;;;;38.68;100.00;99081.69;6259753;27;96680;-68
2023/08/17 10:12:42;;;;;;;;;11.40;11.40;;;;;38.60;100.00;99083.72;6249038;27;96985;-68
2023/08/17 10:15:51;;;;;;;;;14.00;13.00;;;;;38.62;100.00;99074.84;6261554;27;98598;-68
2023/08/17 10:18:56;;;;;;;;;15.75;13.75;;;;;38.56;100.00;99088.56;6265310;27;96315;-68
2023/08/17 10:22:13;;;;;;;;;13.20;12.20;;;;;38.14;100.00;99092.16;6287291;27;96506;-68
2023/08/17 10:25:24;;;;;;;;;14.00;12.00;;;;;37.86;100.00;99083.63;6242274;27;98418;-68
2023/08/17 10:28:28;;;;;;;;;11.00;11.00;;;;;37.53;100.00;99085.56;6252242;27;96386;-68
2023/08/17 10:31:35;;;;;;;;;12.00;11.00;;;;;37.02;100.00;99080.06;6256498;27;96405;-68
2023/08/17 10:34:40;;;;;;;;;10.00;10.00;;;;;36.51;100.00;99090.53;6282005;27;96898;-68
2023/08/17 10:37:45;;;;;;;;;12.00;11.40;;;;;36.21;100.00;99090.69;6280327;27;97044;-68
2023/08/17 10:41:09;;;;;;;;;11.00;10.20;;;;;35.94;100.00;99096.41;6264990;27;96348;-68
2023/08/17 10:44:12;;;;;;;;;12.00;11.00;;;;;35.83;100.00;99092.69;6268282;27;97002;-68
2023/08/17 10:47:21;;;;;;;;;11.00;10.00;;;;;35.57;100.00;99104.81;6271505;27;96370;-68
2023/08/17 10:50:26;;;;;;;;;13.00;12.00;;;;;34.97;100.00;99117.19;6251129;27;97044;-68
2023/08/17 10:53:35;;;;;;;;;14.00;12.00;;;;;34.33;100.00;99119.78;6257275;27;96365;-68
2023/08/17 10:56:41;;;;;;;;;15.00;13.00;;;;;34.23;100.00;99122.38;6279863;27;97683;-69
2023/08/17 10:59:46;;;;;;;;;11.25;10.25;;;;;34.06;100.00;99123.66;6270915;27;96719;-68
2023/08/17 11:02:58;;;;;;;;;13.00;12.00;;;;;33.87;100.00;99118.09;6262727;27;96999;-68
2023/08/17 11:06:17;;;;;;;;;12.60;12.00;;;;;33.76;100.00;99117.91;6270985;27;97303;-68
2023/08/17 11:09:23;;;;;;;;;9.00;9.00;;;;;33.71;100.00;99112.63;6271376;27;96646;-68
2023/08/17 11:12:27;;;;;;;;;11.40;10.40;;;;;33.85;100.00;99114.88;6268001;27;96594;-68
2023/08/17 11:15:39;;;;;;;;;12.60;12.00;;;;;33.99;100.00;99126.31;6255500;27;99160;-68
2023/08/17 11:18:44;;;;;;;;;9.00;9.00;;;;;34.05;100.00;99122.03;6253472;27;96297;-68
2023/08/17 11:21:48;;;;;;;;;8.00;8.00;;;;;34.17;100.00;99124.66;6272726;27;96248;-68
2023/08/17 11:24:52;;;;;;;;;8.00;7.00;;;;;34.21;100.00;99130.34;6272569;27;97064;-68
2023/08/17 11:27:55;;;;;;;;;10.00;9.00;;;;;34.44;100.00;99131.16;6254061;27;96378;-68
2023/08/17 11:30:59;;;;;;;;;9.00;8.75;;;;;34.62;100.00;99117.44;6278124;27;96490;-68
2023/08/17 11:34:03;;;;;;;;;9.50;9.00;;;;;35.31;100.00;99134.91;6267679;27;96506;-68
2023/08/17 11:37:06;;;;;;;;;10.40;10.00;;;;;35.70;100.00;99122.22;6274346;27;96350;-68
2023/08/17 11:40:12;;;;;;;;;9.00;8.00;;;;;36.30;100.00;99116.44;6252309;27;98052;-68
2023/08/17 11:43:16;;;;;;;;;9.00;9.00;;;;;36.77;100.00;99113.63;6268311;27;97219;-69
2023/08/17 11:46:25;;;;;;;;;11.60;10.00;;;;;37.31;100.00;99112.75;6284002;27;96691;-68
2023/08/17 11:49:31;;;;;;;;;9.60;9.60;;;;;37.50;100.00;99108.81;6285837;27;96815;-68
2023/08/17 11:52:41;;;;;;;;;8.20;8.00;;;;;37.60;100.00;99119.34;6276318;27;96351;-68
2023/08/17 11:55:49;;;;;;;;;8.00;7.00;;;;;37.81;100.00;99127.03;6236500;27;98397;-69
2023/08/17 11:58:57;;;;;;;;;8.50;7.00;;;;;37.68;100.00;99132.22;6238221;27;97234;-68
2023/08/17 12:02:02;;;;;;;;;6.00;6.00;;;;;37.12;100.00;99121.50;6267935;27;97387;-68
2023/08/17 12:05:09;;;;;;;;;7.00;7.00;;;;;36.32;100.00;99130.88;6274850;27;96372;-68
2023/08/17 12:08:15;;;;;;;;;5.20;5.20;;;;;35.66;100.00;99137.38;6253228;27;96683;-68
2023/08/17 12:11:20;;;;;;;;;8.00;7.60;;;;;35.13;100.00;99141.06;6257093;27;97041;-68
2023/08/17 12:14:23;;;;;;;;;7.00;7.00;;;;;34.69;100.00;99135.19;6279824;27;96413;-68
2023/08/17 12:17:26;;;;;;;;;7.40;7.00;;;;;34.26;100.00;99150.41;6251709;27;98890;-68
2023/08/17 12:20:30;;;;;;;;;5.00;4.50;;;;;33.44;100.00;99163.94;6269906;27;98486;-68
2023/08/17 12:23:37;;;;;;;;;5.40;4.00;;;;;32.72;100.00;99205.34;6288606;27;96546;-69
2023/08/17 12:26:43;;;;;;;;;5.00;4.60;;;;;31.53;100.00;99271.25;6271433;27;96716;-67
2023/08/17 12:29:48;;;;;;;;;3.60;3.60;;;;;30.33;100.00;99222.66;6288088;27;96378;-66
2023/08/17 12:32:51;;;;;;;;;5.00;5.00;;;;;29.30;100.00;99227.13;6262633;27;96264;-67
2023/08/17 12:35:56;;;;;;;;;5.60;5.00;;;;;28.60;100.00;99213.91;6279329;27;96362;-67
2023/08/17 12:39:00;;;;;;;;;6.20;6.00;;;;;27.93;100.00;99206.25;6272228;27;96458;-66
2023/08/17 12:42:08;;;;;;;;;6.00;5.00;;;;;27.43;100.00;99184.56;6246988;27;96976;-66
2023/08/17 12:45:29;;;;;;;;;6.00;5.00;;;;;27.10;100.00;99186.97;6275254;27;96564;-67
2023/08/17 12:48:33;;;;;;;;;3.00;3.00;;;;;26.93;100.00;99180.56;6252014;27;96924;-66
2023/08/17 12:51:39;;;;;;;;;4.00;4.00;;;;;26.93;100.00;99166.75;6254006;27;96855;-66
2023/08/17 12:54:48;;;;;;;;;7.00;6.00;;;;;26.83;100.00;99170.59;6268469;27;96241;-66
2023/08/17 12:57:56;;;;;;;;;4.80;4.80;;;;;26.67;100.00;99153.66;6279085;27;96346;-66
2023/08/17 13:01:04;;;;;;;;;4.00;3.00;;;;;26.77;100.00;99140.66;6270660;27;96388;-66
2023/08/17 13:04:07;;;;;;;;;3.80;3.80;;;;;26.81;100.00;99131.38;6270626;27;96374;-66
2023/08/17 13:07:10;;;;;;;;;5.80;5.80;;;;;26.94;100.00;99122.16;6276209;27;96918;-66
2023/08/17 13:10:13;;;;;;;;;3.75;3.75;;;;;27.01;100.00;99116.16;6260809;27;96775;-66
2023/08/17 13:13:21;;;;;;;;;4.25;4.00;;;;;26.95;100.00;99096.13;6274464;27;96282;-66
2023/08/17 13:16:25;;;;;;;;;5.00;5.00;;;;;27.02;100.00;99084.56;6270342;27;96883;-66
2023/08/17 13:19:28;;;;;;;;;5.40;4.40;;;;;27.01;100.00;99091.25;6273289;27;96285;-66
2023/08/17 13:22:31;;;;;;;;;3.00;3.00;;;;;26.97;100.00;99081.97;6278770;27;98152;-66
2023/08/17 13:25:34;;;;;;;;;3.25;3.25;;;;;27.16;100.00;99079.69;6268618;27;96579;-66
2023/08/17 13:28:39;;;;;;;;;2.00;2.00;;;;;27.31;100.00;99095.81;6245310;27;96365;-66
2023/08/17 13:31:42;;;;;;;;;4.00;4.00;;;;;27.39;100.00;99089.44;6277232;27;96350;-66
2023/08/17 13:34:45;;;;;;;;;5.67;5.00;;;;;27.59;100.00;99090.75;6234920;27;99138;-66
2023/08/17 13:37:52;;;;;;;;;5.00;4.25;;;;;27.83;100.00;99079.94;6251437;27;98459;-66
2023/08/17 13:40:55;;;;;;;;;4.00;3.60;;;;;28.01;100.00;99078.72;6244105;27;96520;-66
2023/08/17 13:44:03;;;;;;;;;5.00;4.00;;;;;28.10;100.00;99064.81;6262906;27;96335;-67
2023/08/17 13:47:07;;;;;;;;;2.80;2.80;;;;;28.35;100.00;99069.47;6276425;27;96558;-66
2023/08/17 13:50:10;;;;;;;;;5.00;4.00;;;;;28.54;100.00;99079.34;6278194;27;96356;-66
2023/08/17 13:53:14;;;;;;;;;4.00;4.00;;;;;28.70;100.00;99072.03;6273411;27;96527;-66
2023/08/17 13:56:17;;;;;;;;;5.00;4.00;;;;;28.99;100.00;99068.41;6230796;27;97180;-67
2023/08/17 13:59:22;;;;;;;;;3.00;2.40;;;;;29.40;100.00;99079.53;6268190;27;97034;-67
2023/08/17 14:02:25;;;;;;;;;5.00;5.00;;;;;29.72;100.00;99086.22;6264145;27;96805;-67